Time;durP1;ratioP1;P1;durP2;ratioP2;P2;SDS_P1;SDS_P2;PMS_P1;PMS_P2;Temp;Humidity;BMP_temperature;BMP_pressure;BME280_temperature;BME280_humidity;BME280_pressure;Samples;Min_cycle;Max_cycle;Signal;HPM_P1;HPM_P2
2023/01/01 00:00:48;;;;;;;44.42;31.67;;;14.80;99.90;;;-141.84;57.03;20037.41;5069725;28;20660;-63
2023/01/01 00:03:16;;;;;;;38.70;31.25;;;14.70;99.90;;;-141.84;56.79;20071.97;5070911;28;20613;-62
2023/01/01 00:05:44;;;;;;;38.63;31.27;;;14.70;99.90;;;-141.84;56.91;20053.66;5066586;28;20216;-62
2023/01/01 00:08:13;;;;;;;33.85;28.25;;;14.70;99.90;;;-141.84;56.70;20071.97;5066625;28;20220;-63
2023/01/01 00:10:41;;;;;;;32.42;25.60;;;14.60;99.90;;;-141.84;56.91;20065.84;5067262;28;20231;-62
2023/01/01 00:13:12;;;;;;;28.92;22.52;;;14.60;99.90;;;-141.84;56.46;20025.22;5067153;28;20221;-62
2023/01/01 00:15:42;;;;;;;28.23;23.25;;;14.60;99.90;;;-141.84;56.23;20118.69;5068978;28;20188;-62
2023/01/01 00:18:10;;;;;;;26.52;19.70;;;14.70;99.90;;;-141.84;56.39;20023.19;5070943;28;20244;-62
2023/01/01 00:20:38;;;;;;;20.23;16.83;;;14.60;99.90;;;-141.84;55.75;20069.94;5074105;28;20577;-62
2023/01/01 00:23:06;;;;;;;18.42;15.15;;;14.60;99.90;;;-141.84;56.20;20051.63;5069204;28;20225;-62
2023/01/01 00:25:34;;;;;;;19.70;13.63;;;14.60;99.90;;;-141.84;55.90;20065.84;5071930;28;20220;-62
2023/01/01 00:28:03;;;;;;;12.60;10.38;;;14.60;99.90;;;-141.84;55.26;20045.53;5073467;28;20193;-62
2023/01/01 00:30:31;;;;;;;12.20;9.52;;;14.60;99.90;;;-141.84;55.04;20098.38;5071461;28;20220;-62
2023/01/01 00:33:00;;;;;;;12.50;8.63;;;14.70;99.90;;;-141.84;55.11;20076.03;5072112;28;20228;-61
2023/01/01 00:35:29;;;;;;;13.27;8.48;;;14.70;99.90;;;-141.84;54.81;20084.16;5069145;28;20219;-62
2023/01/01 00:37:57;;;;;;;10.35;7.90;;;14.80;99.90;;;-141.84;54.51;20128.88;5071000;28;20629;-61
2023/01/01 00:40:25;;;;;;;12.60;7.88;;;14.80;99.90;;;-141.84;54.23;20132.94;5069081;28;20232;-61
2023/01/01 00:42:53;;;;;;;12.05;7.40;;;14.80;99.90;;;-141.84;54.41;20118.69;5073180;28;20204;-61
2023/01/01 00:45:21;;;;;;;11.85;7.05;;;14.90;99.90;;;-141.84;54.74;20108.53;5073348;28;20197;-61
2023/01/01 00:47:52;;;;;;;10.82;7.35;;;14.80;99.90;;;-141.84;54.73;20055.69;5070561;28;20228;-60
2023/01/01 00:50:22;;;;;;;9.02;6.88;;;14.80;99.90;;;-141.84;55.42;20076.03;5071603;28;20220;-61
2023/01/01 00:52:51;;;;;;;8.02;6.72;;;14.80;99.90;;;-141.84;55.35;20110.56;5067892;28;20232;-62
2023/01/01 00:55:19;;;;;;;10.45;7.97;;;14.70;99.90;;;-141.84;55.19;20110.56;5070142;28;20742;-60
2023/01/01 00:57:47;;;;;;;13.90;9.90;;;14.70;99.90;;;-141.84;55.04;20132.94;5073333;28;20224;-62
2023/01/01 01:00:17;;;;;;;15.55;12.45;;;14.80;99.90;;;-141.84;55.92;20084.16;5071323;28;20203;-61
2023/01/01 01:02:45;;;;;;;10.38;8.00;;;14.70;99.90;;;-141.84;56.37;20114.63;5073195;28;20235;-61
2023/01/01 01:05:13;;;;;;;9.95;7.18;;;14.70;99.90;;;-141.84;56.44;20086.19;5073251;28;20663;-61
2023/01/01 01:07:43;;;;;;;13.55;6.95;;;14.60;99.90;;;-141.84;56.52;20069.94;5073082;28;20225;-62
2023/01/01 01:10:12;;;;;;;12.57;7.20;;;14.60;99.90;;;-141.84;57.26;20015.03;5073676;28;20225;-62
2023/01/01 01:12:40;;;;;;;9.57;6.43;;;14.50;99.90;;;-141.84;57.79;19990.66;5068642;28;20289;-60
2023/01/01 01:15:10;;;;;;;11.13;6.50;;;14.40;99.90;;;-141.84;57.76;20071.97;5072465;28;20225;-60
2023/01/01 01:17:39;;;;;;;7.00;5.65;;;14.40;99.90;;;-141.84;58.93;19968.31;5072071;28;20227;-61
2023/01/01 01:20:08;;;;;;;9.88;6.53;;;14.30;99.90;;;-141.84;58.51;20029.28;5070320;28;20239;-61
2023/01/01 01:22:37;;;;;;;8.55;6.07;;;14.20;99.90;;;-141.84;58.13;20021.16;5073085;28;20217;-61
2023/01/01 01:25:07;;;;;;;8.75;5.80;;;14.30;99.90;;;-141.84;58.42;20029.28;5073031;28;20208;-60
2023/01/01 01:27:36;;;;;;;10.05;5.18;;;14.20;99.90;;;-141.84;58.12;20065.84;5073181;28;20632;-61
2023/01/01 01:30:05;;;;;;;6.15;5.05;;;14.30;99.90;;;-141.84;58.39;20015.03;5071573;28;20854;-61
2023/01/01 01:32:33;;;;;;;7.60;4.90;;;14.20;99.90;;;-141.84;57.79;20053.66;5069158;28;20219;-64
2023/01/01 01:35:01;;;;;;;6.78;4.82;;;14.30;99.90;;;-141.84;57.72;20057.72;5072788;28;20225;-60
2023/01/01 01:37:30;;;;;;;7.50;5.60;;;14.40;99.90;;;-141.84;56.93;20080.09;5072525;28;20887;-61
2023/01/01 01:39:58;;;;;;;8.25;5.97;;;14.50;99.90;;;-141.84;57.67;20055.69;5072846;28;20224;-61
2023/01/01 01:42:27;;;;;;;5.40;4.43;;;14.50;99.90;;;-141.84;57.44;20082.13;5073280;28;20193;-63
2023/01/01 01:44:59;;;;;;;8.07;5.30;;;14.40;99.90;;;-141.84;57.55;20008.94;5072007;28;20220;-62
2023/01/01 01:47:34;;;;;;;7.43;4.45;;;14.40;99.90;;;-141.84;57.57;20006.91;5072740;28;20241;-61
2023/01/01 01:50:11;;;;;;;7.72;4.85;;;14.40;99.90;;;-141.84;56.42;20076.03;5072586;28;20917;-63
2023/01/01 01:52:51;;;;;;;8.90;5.63;;;14.40;99.90;;;-141.84;56.42;20067.88;5072394;28;20223;-61
2023/01/01 01:55:20;;;;;;;7.47;5.85;;;14.50;99.90;;;-141.84;57.26;20004.88;5072726;28;20244;-63
2023/01/01 01:57:50;;;;;;;8.80;5.45;;;14.50;99.90;;;-141.84;56.92;20053.66;5072581;28;20208;-62
2023/01/01 02:00:18;;;;;;;7.10;4.95;;;14.40;99.90;;;-141.84;55.99;20061.78;5073294;28;20225;-61
2023/01/01 02:02:55;;;;;;;8.07;6.35;;;14.50;99.90;;;-141.84;56.65;20019.13;5072518;28;20640;-61
2023/01/01 02:05:25;;;;;;;9.25;5.00;;;14.40;99.90;;;-141.84;55.91;20069.94;5072508;28;20228;-61
2023/01/01 02:07:55;;;;;;;6.55;4.28;;;14.50;99.90;;;-141.84;56.19;20090.25;5072413;28;20255;-60
2023/01/01 02:10:23;;;;;;;11.30;8.75;;;14.50;99.90;;;-141.84;55.87;20057.72;5072514;28;20244;-62
2023/01/01 02:12:53;;;;;;;8.85;4.45;;;14.50;99.90;;;-141.84;55.44;20122.78;5072309;28;20207;-62
2023/01/01 02:15:25;;;;;;;5.30;3.95;;;14.60;99.90;;;-141.84;56.20;20045.53;5072943;28;20216;-61
2023/01/01 02:18:02;;;;;;;6.43;4.40;;;14.50;99.90;;;-141.84;56.71;20025.22;5072311;28;20223;-62
2023/01/01 02:20:46;;;;;;;4.50;3.80;;;14.40;99.90;;;-141.84;56.34;20106.50;5072238;28;20230;-62
2023/01/01 02:23:55;;;;;;;6.13;3.80;;;14.40;99.90;;;-141.84;56.52;20065.84;5072111;28;20247;-61
2023/01/01 02:26:56;;;;;;;6.38;3.97;;;14.50;99.90;;;-141.84;57.20;20035.38;5071989;28;20232;-62
2023/01/01 02:29:42;;;;;;;7.95;4.05;;;14.40;99.90;;;-141.84;56.27;20090.25;5071971;28;20216;-62
2023/01/01 02:32:17;;;;;;;5.88;4.50;;;14.50;99.90;;;-141.84;56.64;20086.19;5072029;28;20229;-62
2023/01/01 02:34:54;;;;;;;4.68;3.53;;;14.50;99.90;;;-141.84;56.79;20074.00;5072051;28;20230;-62
2023/01/01 02:37:26;;;;;;;7.25;3.88;;;14.50;99.90;;;-141.84;56.77;20063.81;5071954;28;20584;-61
2023/01/01 02:39:59;;;;;;;4.97;3.83;;;14.60;99.90;;;-141.84;57.12;20063.81;5070875;28;20197;-61
2023/01/01 02:42:30;;;;;;;3.78;3.42;;;14.60;99.90;;;-141.84;57.07;20076.03;5072461;28;20185;-62
2023/01/01 02:45:00;;;;;;;4.88;3.60;;;14.50;99.90;;;-141.84;57.05;20102.44;5071753;28;20232;-61
2023/01/01 02:47:28;;;;;;;5.93;3.40;;;14.50;99.90;;;-141.84;57.57;20059.75;5071618;28;20240;-62
2023/01/01 02:50:06;;;;;;;5.70;3.40;;;14.40;99.90;;;-141.84;57.54;20039.44;5071687;28;20225;-61
2023/01/01 02:52:54;;;;;;;5.10;3.35;;;14.40;99.90;;;-141.84;58.01;20017.09;5071546;28;20228;-62
2023/01/01 02:55:36;;;;;;;5.30;3.25;;;14.40;99.90;;;-141.84;57.85;20019.13;5071710;28;20228;-62
2023/01/01 03:01:19;;;;;;;4.40;3.10;;;14.20;99.90;;;-141.84;58.09;20061.78;5071473;28;20201;-69
2023/01/01 03:04:01;;;;;;;4.32;3.53;;;14.20;99.90;;;-141.84;58.43;20045.53;5071468;28;20667;-66
2023/01/01 03:06:40;;;;;;;8.95;6.45;;;14.20;99.90;;;-141.84;58.30;20057.72;5071994;28;20577;-69
2023/01/01 03:09:24;;;;;;;5.85;3.70;;;14.20;99.90;;;-141.84;58.29;20025.22;5071241;28;20708;-69
2023/01/01 03:12:01;;;;;;;7.18;3.42;;;14.20;99.90;;;-141.84;59.13;19986.59;5071314;28;20235;-69
2023/01/01 03:14:44;;;;;;;6.47;3.40;;;14.10;99.90;;;-141.84;58.92;20013.00;5071344;28;20239;-68
2023/01/01 03:17:22;;;;;;;6.00;3.90;;;14.00;99.90;;;-141.84;59.69;19958.13;5071307;28;20231;-69
2023/01/01 03:19:52;;;;;;;5.85;3.17;;;13.90;99.90;;;-141.84;59.89;19996.75;5071335;28;20238;-69
2023/01/01 03:22:26;;;;;;;5.13;3.47;;;13.80;99.90;;;-141.84;59.77;19964.25;5071270;28;20274;-69
2023/01/01 03:25:00;;;;;;;6.82;3.83;;;13.80;99.90;;;-141.84;60.28;19943.91;5071365;28;20180;-69
2023/01/01 03:27:34;;;;;;;6.07;3.65;;;13.70;99.90;;;-141.84;60.84;19927.66;5071771;28;20275;-69
2023/01/01 03:30:10;;;;;;;4.57;3.35;;;13.60;99.90;;;-141.84;60.25;20004.88;5071437;28;20429;-68
2023/01/01 03:33:00;;;;;;;5.80;4.23;;;13.70;99.90;;;-141.84;60.11;19992.69;5071130;28;20224;-69
2023/01/01 03:35:36;;;;;;;4.93;4.03;;;13.80;99.90;;;-141.84;60.77;19956.09;5070929;28;20228;-69
2023/01/01 03:38:15;;;;;;;6.68;3.83;;;13.60;99.90;;;-141.84;61.13;19933.75;5059567;28;20224;-70
2023/01/01 03:40:48;;;;;;;6.73;4.43;;;13.60;99.90;;;-141.84;60.40;19931.72;5071707;28;20617;-69
2023/01/01 03:43:25;;;;;;;6.78;4.45;;;13.70;99.90;;;-141.84;60.42;19943.91;5071708;28;20223;-67
2023/01/01 03:45:56;;;;;;;5.47;4.33;;;13.70;99.90;;;-141.84;60.09;19982.53;5071303;28;20188;-68
2023/01/01 03:48:25;;;;;;;6.50;4.47;;;13.60;99.90;;;-141.84;59.54;19976.44;5071482;28;20192;-69
2023/01/01 03:51:08;;;;;;;6.38;4.28;;;13.80;99.90;;;-141.84;59.86;19976.44;5070430;28;20209;-69
2023/01/01 03:53:41;;;;;;;6.57;4.80;;;13.80;99.90;;;-141.84;60.14;19943.91;5071010;28;20232;-69
2023/01/01 03:56:19;;;;;;;6.53;4.83;;;13.70;99.90;;;-141.84;59.90;19952.03;5070982;28;20838;-69
2023/01/01 03:58:57;;;;;;;6.53;4.85;;;13.70;99.90;;;-141.84;60.12;19933.75;5071107;28;20220;-70
2023/01/01 04:01:33;;;;;;;6.38;4.07;;;13.70;99.90;;;-141.84;59.89;19943.91;5050863;28;20232;-70
2023/01/01 04:04:06;;;;;;;5.43;4.32;;;13.70;99.90;;;-141.84;60.35;19943.91;5051148;28;20541;-71
2023/01/01 04:06:35;;;;;;;6.45;4.90;;;13.60;99.90;;;-141.84;59.62;19980.50;5067944;28;20204;-70
2023/01/01 04:09:08;;;;;;;5.35;4.40;;;13.70;99.90;;;-141.84;60.18;19903.25;5071660;28;20699;-70
2023/01/01 04:14:30;;;;;;;6.43;4.47;;;13.70;99.90;;;-141.84;59.60;20004.88;5070966;28;20224;-71
2023/01/01 04:17:00;;;;;;;6.70;4.25;;;13.80;99.90;;;-141.84;59.86;19943.91;5070755;28;20224;-69
2023/01/01 04:19:30;;;;;;;7.43;4.32;;;13.80;99.90;;;-141.84;59.16;19988.63;5070995;28;20216;-69
2023/01/01 04:21:58;;;;;;;6.15;4.43;;;13.80;99.90;;;-141.84;59.26;19988.63;5070717;28;20204;-70
2023/01/01 04:24:26;;;;;;;8.02;4.30;;;13.80;99.90;;;-141.84;59.67;19962.19;5071251;28;20204;-70
2023/01/01 04:26:55;;;;;;;6.32;4.43;;;13.80;99.90;;;-141.84;59.60;19974.41;5070707;28;20227;-71
2023/01/01 04:29:23;;;;;;;7.32;4.80;;;13.70;99.90;;;-141.84;59.89;19964.25;5070531;28;20228;-70
2023/01/01 04:31:51;;;;;;;5.85;4.10;;;13.80;99.90;;;-141.84;59.59;20000.81;5070664;28;20224;-70
2023/01/01 04:34:20;;;;;;;6.35;4.60;;;13.80;99.90;;;-141.84;59.58;19964.25;5065692;28;20224;-69
2023/01/01 04:36:49;;;;;;;5.95;4.60;;;13.80;99.90;;;-141.84;59.95;19964.25;5061676;28;20213;-69
2023/01/01 04:39:17;;;;;;;4.72;3.97;;;13.80;99.90;;;-141.84;60.65;19952.03;5071208;28;20205;-69
2023/01/01 04:41:47;;;;;;;7.93;4.18;;;13.70;99.90;;;-141.84;60.50;19923.59;5070017;28;20236;-69
2023/01/01 04:44:15;;;;;;;6.70;4.47;;;13.60;99.90;;;-141.84;60.25;19927.66;5070499;28;20232;-70
2023/01/01 04:46:43;;;;;;;6.85;4.80;;;13.60;99.90;;;-141.84;60.43;19919.53;5070632;28;20279;-69
2023/01/01 04:49:11;;;;;;;6.10;4.82;;;13.60;99.90;;;-141.84;60.25;19968.31;5070694;28;20224;-69
2023/01/01 04:51:40;;;;;;;6.50;4.28;;;13.50;99.90;;;-141.84;60.63;19905.28;5070781;28;20189;-69
2023/01/01 04:54:09;;;;;;;6.57;4.60;;;13.50;99.90;;;-141.84;61.17;19903.25;5070615;28;20228;-69
2023/01/01 04:56:37;;;;;;;5.25;4.28;;;13.40;99.90;;;-141.84;61.43;19893.09;5070455;28;20221;-69
2023/01/01 04:59:06;;;;;;;6.95;4.43;;;13.40;99.90;;;-141.84;61.74;19884.97;5069960;28;20236;-69
2023/01/01 05:01:34;;;;;;;6.17;4.50;;;13.30;99.90;;;-141.84;61.59;19905.28;5070019;28;20237;-70
2023/01/01 05:04:02;;;;;;;6.30;4.78;;;13.30;99.90;;;-141.84;61.47;19905.28;5073611;28;20648;-71
2023/01/01 05:06:30;;;;;;;6.03;4.60;;;13.30;99.90;;;-141.84;62.20;19826.03;5074508;28;20597;-70
2023/01/01 05:09:00;;;;;;;6.45;4.88;;;13.20;99.90;;;-141.84;62.06;19878.88;5073741;28;20231;-69
2023/01/01 05:11:31;;;;;;;5.70;4.47;;;13.20;99.90;;;-141.84;62.51;19862.63;5073877;28;20225;-69
2023/01/01 05:14:01;;;;;;;5.10;3.70;;;13.00;99.90;;;-141.84;62.09;19866.69;5073529;28;20224;-69
2023/01/01 05:16:31;;;;;;;6.03;4.20;;;13.10;99.90;;;-141.84;62.60;19828.06;5073722;28;20240;-68
2023/01/01 05:19:00;;;;;;;7.90;4.20;;;13.10;99.90;;;-141.84;61.18;19897.16;5073786;28;20189;-68
2023/01/01 05:21:31;;;;;;;5.50;4.50;;;13.10;99.90;;;-141.84;61.30;19915.47;5074093;28;20229;-68
2023/01/01 05:24:04;;;;;;;6.10;4.57;;;13.20;99.90;;;-141.84;61.65;19874.81;5073320;28;20891;-70
2023/01/01 05:26:36;;;;;;;5.50;4.67;;;13.20;99.90;;;-141.84;61.85;19901.22;5073438;28;20797;-69
2023/01/01 05:29:05;;;;;;;5.32;4.45;;;13.20;99.90;;;-141.84;61.47;19878.88;5073231;28;20224;-69
2023/01/01 05:31:42;;;;;;;5.63;4.07;;;13.20;99.90;;;-141.84;61.29;19911.41;5073430;28;20303;-69
2023/01/01 05:34:11;;;;;;;6.50;4.70;;;13.20;99.90;;;-141.84;61.77;19882.94;5068723;28;20778;-69
2023/01/01 05:36:39;;;;;;;6.80;4.10;;;13.10;99.90;;;-141.84;62.46;19846.34;5063029;28;20215;-71
2023/01/01 05:39:10;;;;;;;5.95;3.90;;;13.10;99.90;;;-141.84;62.38;19907.31;5072500;28;20232;-69
2023/01/01 05:41:40;;;;;;;6.93;4.65;;;13.10;99.90;;;-141.84;61.53;19899.19;5073107;28;20255;-72
2023/01/01 05:44:10;;;;;;;4.68;3.90;;;13.10;99.90;;;-141.84;61.39;19878.88;5072777;28;20235;-69
2023/01/01 05:46:39;;;;;;;5.30;3.95;;;13.20;99.90;;;-141.84;62.22;19882.94;5073120;28;20743;-69
2023/01/01 05:49:11;;;;;;;5.25;3.85;;;13.10;99.90;;;-141.84;62.11;19842.28;5072638;28;20992;-70
2023/01/01 05:51:39;;;;;;;5.30;4.27;;;13.10;99.90;;;-141.84;61.87;19850.41;5065126;28;20714;-70
2023/01/01 05:54:09;;;;;;;6.00;4.13;;;13.10;99.90;;;-141.84;61.57;19905.28;5072883;28;20244;-70
2023/01/01 05:56:36;;;;;;;5.03;3.88;;;13.10;99.90;;;-141.84;61.29;19911.41;5073010;28;20670;-70
2023/01/01 05:59:06;;;;;;;6.38;3.90;;;13.20;99.90;;;-141.84;61.14;19915.47;5072455;28;20239;-70
2023/01/01 06:01:34;;;;;;;5.80;3.53;;;13.20;99.90;;;-141.84;61.38;19884.97;5072929;28;20221;-69
2023/01/01 06:04:12;;;;;;;5.07;3.75;;;13.20;99.90;;;-141.84;61.20;19884.97;5072846;28;20220;-69
2023/01/01 06:06:40;;;;;;;6.65;3.55;;;13.20;99.90;;;-141.84;60.94;19907.31;5073102;28;20205;-69
2023/01/01 06:09:11;;;;;;;4.93;3.83;;;13.20;99.90;;;-141.84;61.10;19893.09;5072320;28;20225;-70
2023/01/01 06:11:39;;;;;;;4.90;3.67;;;13.30;99.90;;;-141.84;60.80;19895.13;5072639;28;20220;-70
2023/01/01 06:14:09;;;;;;;6.33;3.53;;;13.20;99.90;;;-141.84;60.89;19884.97;5072377;28;20220;-70
2023/01/01 06:16:37;;;;;;;4.33;3.47;;;13.20;99.90;;;-141.84;60.78;19909.34;5072667;28;20228;-69
2023/01/01 06:19:05;;;;;;;7.50;3.88;;;13.20;99.90;;;-141.84;60.61;19909.34;5072215;28;20295;-68
2023/01/01 06:21:33;;;;;;;4.53;3.50;;;13.30;99.90;;;-141.84;61.03;19903.25;5072646;28;20229;-68
2023/01/01 06:24:02;;;;;;;4.22;3.38;;;13.20;99.90;;;-141.84;60.81;19897.16;5072286;28;20224;-69
2023/01/01 06:26:32;;;;;;;4.87;3.87;;;13.20;99.90;;;-141.84;60.76;19917.50;5072404;28;20270;-69
2023/01/01 06:29:02;;;;;;;5.68;3.67;;;13.20;99.90;;;-141.84;59.65;19960.16;5072088;28;20846;-69
2023/01/01 06:31:32;;;;;;;4.83;3.67;;;13.40;99.90;;;-141.84;59.56;19954.06;5072646;28;20574;-68
2023/01/01 06:34:07;;;;;;;4.45;3.20;;;13.50;99.90;;;-141.84;59.73;19915.47;5071960;28;20279;-69
2023/01/01 06:36:36;;;;;;;5.67;3.90;;;13.40;99.90;;;-141.84;60.35;19925.63;5072136;28;20204;-69
2023/01/01 06:39:04;;;;;;;4.28;3.47;;;13.40;99.90;;;-141.84;60.35;19891.06;5071857;28;20244;-68
2023/01/01 06:41:32;;;;;;;4.70;3.42;;;13.30;99.90;;;-141.84;59.67;19919.53;5072017;28;20228;-67
2023/01/01 06:44:01;;;;;;;4.45;3.38;;;13.30;99.90;;;-141.84;59.73;19927.66;5072159;28;20596;-69
2023/01/01 06:46:33;;;;;;;4.50;3.17;;;13.40;99.90;;;-141.84;60.12;19927.66;5072522;28;20220;-70
2023/01/01 06:49:04;;;;;;;4.43;3.40;;;13.30;99.90;;;-141.84;60.21;19901.22;5072023;28;20200;-69
2023/01/01 06:51:37;;;;;;;5.75;3.50;;;13.30;99.90;;;-141.84;60.21;19927.66;5072732;28;20195;-70
2023/01/01 06:54:06;;;;;;;5.30;3.53;;;13.30;99.90;;;-141.84;60.58;19903.25;5071601;28;20221;-69
2023/01/01 06:56:35;;;;;;;3.93;3.10;;;13.20;99.90;;;-141.84;60.81;19891.06;5072048;28;20229;-70
2023/01/01 06:59:04;;;;;;;5.85;3.65;;;13.20;99.90;;;-141.84;59.93;19895.13;5072722;28;20369;-70
2023/01/01 07:01:36;;;;;;;6.55;3.45;;;13.30;99.90;;;-141.84;60.89;19909.34;5072317;28;20772;-69
2023/01/01 07:04:07;;;;;;;6.13;3.92;;;13.20;99.90;;;-141.84;60.79;19876.84;5072480;28;20268;-70
2023/01/01 07:06:36;;;;;;;7.17;3.40;;;13.10;99.90;;;-141.84;61.21;19878.88;5072065;28;20204;-68
2023/01/01 07:09:05;;;;;;;5.63;3.90;;;13.00;99.90;;;-141.84;61.36;19880.91;5071923;28;20283;-69
2023/01/01 07:11:34;;;;;;;5.03;3.13;;;13.10;99.90;;;-141.84;61.48;19915.47;5072206;28;20221;-69
2023/01/01 07:14:04;;;;;;;4.00;3.40;;;13.00;99.90;;;-141.84;61.57;19856.53;5071673;28;20243;-70
2023/01/01 07:16:33;;;;;;;5.32;3.95;;;13.00;99.90;;;-141.84;61.77;19880.91;5072727;28;20227;-68
2023/01/01 07:19:01;;;;;;;4.00;3.40;;;12.90;99.90;;;-141.84;62.04;19842.28;5072900;28;20722;-69
2023/01/01 07:21:32;;;;;;;5.00;3.57;;;12.90;99.90;;;-141.84;61.94;19838.22;5072899;28;20222;-69
2023/01/01 07:24:03;;;;;;;7.38;4.20;;;12.80;99.90;;;-141.84;62.05;19832.13;5072274;28;20216;-69
2023/01/01 07:26:33;;;;;;;6.90;3.70;;;12.90;99.90;;;-141.84;61.47;19901.22;5071911;28;20311;-69
2023/01/01 07:29:01;;;;;;;5.23;3.50;;;12.90;99.90;;;-141.84;61.17;19882.94;5072554;28;20216;-68
2023/01/01 07:31:39;;;;;;;4.13;3.43;;;13.00;99.90;;;-141.84;61.31;19866.69;5072490;28;20220;-70
2023/01/01 07:34:12;;;;;;;4.80;3.80;;;13.00;99.90;;;-141.84;61.92;19872.78;5071577;28;21793;-67
2023/01/01 07:36:41;;;;;;;7.20;3.70;;;13.00;99.90;;;-141.84;62.32;19830.09;5072192;28;20680;-68
2023/01/01 07:39:09;;;;;;;6.50;3.60;;;12.90;99.90;;;-141.84;61.74;19878.88;5071957;28;20231;-69
2023/01/01 07:41:37;;;;;;;4.10;3.50;;;12.90;99.90;;;-141.84;61.57;19872.78;5072350;28;20228;-70
2023/01/01 07:44:05;;;;;;;5.40;3.93;;;13.00;99.90;;;-141.84;61.59;19891.06;5072059;28;20832;-69
2023/01/01 07:46:37;;;;;;;4.23;3.67;;;13.00;99.90;;;-141.84;60.73;19903.25;5069749;28;20224;-68
2023/01/01 07:49:05;;;;;;;6.18;4.28;;;13.10;99.90;;;-141.84;61.21;19868.72;5072230;28;20201;-69
2023/01/01 07:51:34;;;;;;;7.90;4.00;;;13.10;99.90;;;-141.84;61.80;19858.56;5071892;28;20200;-68
2023/01/01 07:54:02;;;;;;;5.10;3.87;;;13.10;99.90;;;-141.84;61.03;19911.41;5072289;28;20225;-70
2023/01/01 07:56:35;;;;;;;5.40;3.92;;;13.10;99.90;;;-141.84;60.84;19899.19;5072130;28;20255;-70
2023/01/01 07:59:04;;;;;;;5.60;3.93;;;13.10;99.90;;;-141.84;61.31;19895.13;5071774;28;20251;-68
2023/01/01 08:01:37;;;;;;;7.90;4.30;;;13.10;99.90;;;-141.84;60.73;19907.31;5071437;28;20225;-70
2023/01/01 08:04:06;;;;;;;4.95;3.95;;;13.20;99.90;;;-141.84;59.98;19950.00;5072258;28;20193;-70
2023/01/01 08:06:34;;;;;;;4.77;4.20;;;13.20;99.90;;;-141.84;60.37;19956.09;5072294;28;20201;-69
2023/01/01 08:09:02;;;;;;;6.03;3.97;;;13.20;99.90;;;-141.84;60.03;19952.03;5072081;28;20281;-69
2023/01/01 08:11:30;;;;;;;5.20;4.20;;;13.30;99.90;;;-141.84;60.00;19915.47;5072127;28;20657;-69
2023/01/01 08:13:58;;;;;;;5.10;3.85;;;13.40;99.90;;;-141.84;59.88;19939.84;5072073;28;20228;-70
2023/01/01 08:16:26;;;;;;;5.82;4.25;;;13.30;99.90;;;-141.84;59.97;19935.78;5070619;28;20224;-70
2023/01/01 08:18:56;;;;;;;4.88;4.28;;;13.40;99.90;;;-141.84;59.62;19954.06;5070960;28;20682;-68
2023/01/01 08:21:24;;;;;;;6.30;4.20;;;13.50;99.90;;;-141.84;59.39;19968.31;5071593;28;20220;-68
2023/01/01 08:23:52;;;;;;;7.68;4.68;;;13.50;99.90;;;-141.84;59.81;19945.94;5071372;28;20236;-69
2023/01/01 08:26:30;;;;;;;7.03;4.68;;;13.50;99.90;;;-141.84;59.29;19931.72;5070620;28;20221;-69
2023/01/01 08:28:58;;;;;;;6.03;4.60;;;13.60;99.90;;;-141.84;58.52;19998.78;5072634;28;20227;-69
2023/01/01 08:31:26;;;;;;;5.55;4.40;;;13.70;99.90;;;-141.84;58.98;19960.16;5072421;28;20220;-70
2023/01/01 08:33:56;;;;;;;5.72;4.68;;;13.70;99.90;;;-141.84;59.25;19988.63;5072866;28;20201;-70
2023/01/01 08:36:25;;;;;;;6.93;4.43;;;13.70;99.90;;;-141.84;58.92;19976.44;5072219;28;20197;-69
2023/01/01 08:38:53;;;;;;;5.22;4.47;;;13.70;99.90;;;-141.84;58.88;19988.63;5074945;28;20221;-69
2023/01/01 08:41:21;;;;;;;11.45;9.68;;;13.80;99.90;;;-141.84;58.44;20008.94;5074381;28;20575;-68
2023/01/01 08:43:49;;;;;;;7.53;5.18;;;13.80;99.90;;;-141.84;58.21;20041.47;5073864;28;20234;-67
2023/01/01 08:46:18;;;;;;;5.93;5.05;;;13.80;99.90;;;-141.84;57.66;20039.44;5071928;28;20235;-70
2023/01/01 08:48:46;;;;;;;6.97;4.82;;;14.00;99.90;;;-141.84;57.39;20041.47;5068707;28;20205;-69
2023/01/01 08:51:16;;;;;;;5.88;4.80;;;14.10;99.90;;;-141.84;57.02;20063.81;5072741;28;20219;-70
2023/01/01 08:53:44;;;;;;;9.13;5.40;;;14.20;99.90;;;-141.84;57.47;20013.00;5086471;28;20224;-69
2023/01/01 08:56:19;;;;;;;7.75;5.25;;;14.20;99.90;;;-141.84;56.66;20100.41;5085304;28;20220;-68
2023/01/01 08:58:48;;;;;;;7.38;5.10;;;14.30;99.90;;;-141.84;56.18;20116.66;5081556;28;21064;-69
2023/01/01 09:01:20;;;;;;;5.72;4.72;;;14.50;99.90;;;-141.84;55.24;20159.34;5084044;28;20231;-69
2023/01/01 09:03:49;;;;;;;6.00;5.00;;;14.70;99.90;;;-141.84;55.31;20126.84;5083493;28;20212;-68
2023/01/01 09:06:18;;;;;;;5.97;4.80;;;14.70;99.90;;;-141.84;55.71;20147.16;5082853;28;20197;-69
2023/01/01 09:08:46;;;;;;;7.95;5.50;;;14.70;99.90;;;-141.84;55.71;20163.41;5082654;28;20220;-69
2023/01/01 09:11:23;;;;;;;7.22;5.15;;;14.80;99.90;;;-141.84;55.75;20132.94;5082669;28;20559;-68
2023/01/01 09:13:52;;;;;;;8.77;5.30;;;14.70;99.90;;;-141.84;56.01;20116.66;5080462;28;20213;-69
2023/01/01 09:16:22;;;;;;;8.63;5.18;;;14.70;99.90;;;-141.84;55.33;20195.94;5083035;28;20227;-69
2023/01/01 09:18:51;;;;;;;9.02;5.28;;;14.80;99.90;;;-141.84;55.09;20149.19;5082704;28;20192;-70
2023/01/01 09:21:20;;;;;;;6.05;5.30;;;14.80;99.90;;;-141.84;55.14;20161.38;5084338;28;20240;-70
2023/01/01 09:23:49;;;;;;;8.60;5.30;;;14.80;99.90;;;-141.84;54.98;20161.38;5074261;28;20217;-69
2023/01/01 09:26:17;;;;;;;7.05;4.85;;;14.80;99.90;;;-141.84;54.87;20204.06;5073002;28;20239;-70
2023/01/01 09:28:45;;;;;;;10.00;5.32;;;14.90;99.90;;;-141.84;54.66;20189.84;5089490;28;20220;-71
2023/01/01 09:31:13;;;;;;;6.97;4.60;;;15.00;99.90;;;-141.84;54.59;20185.78;5093069;28;20224;-69
2023/01/01 09:33:41;;;;;;;6.10;5.00;;;14.90;99.90;;;-141.84;54.94;20218.31;5093806;28;20238;-70
2023/01/01 09:36:15;;;;;;;6.57;5.13;;;15.00;99.90;;;-141.84;54.24;20195.94;5062469;28;20236;-69
2023/01/01 09:38:49;;;;;;;6.07;5.15;;;15.00;99.90;;;-141.84;54.95;20230.50;5074052;28;20747;-69
2023/01/01 09:41:30;;;;;;;6.82;5.00;;;15.00;99.90;;;-141.84;55.04;20191.88;5073049;28;20224;-71
2023/01/01 09:44:11;;;;;;;6.13;4.75;;;15.00;99.90;;;-141.84;54.53;20230.50;5072831;28;20591;-70
2023/01/01 09:46:39;;;;;;;7.25;5.20;;;15.00;99.90;;;-141.84;54.92;20220.34;5072900;28;20228;-70
2023/01/01 09:49:18;;;;;;;7.78;5.15;;;15.00;99.90;;;-141.84;54.97;20197.97;5072851;28;20236;-69
2023/01/01 09:51:54;;;;;;;5.47;4.63;;;15.00;99.90;;;-141.84;55.24;20202.03;5083803;28;20192;-69
2023/01/01 09:54:33;;;;;;;8.10;4.90;;;15.00;99.90;;;-141.84;54.79;20220.34;5078920;28;20212;-70
2023/01/01 09:57:07;;;;;;;6.80;4.97;;;15.10;99.90;;;-141.84;54.95;20212.19;5092893;28;20773;-71
2023/01/01 09:59:39;;;;;;;7.18;5.00;;;15.00;99.90;;;-141.84;54.82;20183.75;5082601;28;20231;-69
2023/01/01 10:02:32;;;;;;;8.82;4.72;;;15.10;99.90;;;-141.84;54.79;20204.06;5092801;28;20232;-69
2023/01/01 10:05:15;;;;;;;8.90;5.18;;;15.00;99.90;;;-141.84;55.57;20151.22;5092911;28;20235;-69
2023/01/01 10:07:48;;;;;;;6.75;4.90;;;14.90;99.90;;;-141.84;55.74;20185.78;5092713;28;20227;-69
2023/01/01 10:10:35;;;;;;;6.15;4.85;;;14.90;99.90;;;-141.84;55.85;20183.75;5093029;28;20243;-69
2023/01/01 10:13:22;;;;;;;10.95;5.30;;;14.80;99.90;;;-141.84;56.54;20122.78;5084817;28;20196;-68
2023/01/01 10:15:58;;;;;;;7.20;5.28;;;14.80;99.90;;;-141.84;56.08;20175.63;5066887;28;20197;-64
2023/01/01 10:18:33;;;;;;;6.50;4.70;;;14.70;99.90;;;-141.84;56.11;20159.34;5074026;28;20220;-69
2023/01/01 10:21:12;;;;;;;9.15;5.35;;;14.80;99.90;;;-141.84;56.10;20175.63;5091379;28;20317;-70
2023/01/01 10:23:47;;;;;;;8.60;5.43;;;14.80;99.90;;;-141.84;55.80;20183.75;5085580;28;20228;-70
2023/01/01 10:26:20;;;;;;;7.40;4.97;;;14.90;99.90;;;-141.84;55.55;20206.09;5068160;28;20242;-70
2023/01/01 10:29:01;;;;;;;9.18;5.60;;;15.10;99.90;;;-141.84;55.28;20220.34;5071356;28;20224;-70